Алнаши

Карта отелей и гостиниц, располагающихся рядом с аэропортом Алнаши :

Алнаши Удмуртская республика 56° 10' 13.3212" N, 52° 28' 1.1388" E
Алнаши Удмуртская республика 56° 10' 13.3212" N, 52° 28' 1.1388" E
Код аэродрома ИКАО
ZDL2
Код аэродрома RU
ЗДЛ2
Координаты
N56.17037° E052.46698°
Превышение над уровнем моря
135
Основная полоса
03/21
Курс магнитный
031,5/211,5
Длина основной ВПП
500
Ширина основной ВПП
30
Покрытие основной ВПП
Твёрдое (асфальт)
Освещение ВПП
Нет
Тип: 
Аэродром
Класс аэродрома: 
Принадлежность: 
ГА
Статус: 
Недействующий
Сайт: 
E-mail аэродрома: 
Страна: 
Россия
Регион: 
Удмуртская республика
Город: 
Дополнительная информация: 
Площадка АХР.


Найти трансфер

С помощью этой формы Вы можете найти трансфер из аэропорта Алнаши в город, аэропорт или вокзал:

Погода в аэропортах:

Авиационная погода в Брянске

Регион: 
Погода METAR: 
UUBP 212300Z AUTO 05003MPS 5000 -RA 09/09 Q0999 RMK QFE732/0976
Время наблюдения
2022-05-21T23:00:00Z
Температура C
9.0
Точка росы
9.0
Направление ветра
50
Скорость ветра (узлы)
6
Метео видимость
3.11
Облачность
Нижняя граница облачности (футы)
Явления погоды
-RA
Условия полета
Аэропорт подробнее: 
-RA - слабый дождь;

Авиационная погода в Актобе

Регион: 
Погода METAR: 
UATT 212300Z 29009MPS 9000 -RA BKN008 OVC036 06/04 Q1003 NOSIG RMK QFE733/0977
Время наблюдения
2022-05-21T23:00:00Z
Температура C
6.0
Точка росы
4.0
Направление ветра
290
Скорость ветра (узлы)
17
Метео видимость
5.59
Облачность
BKN
OVC
Нижняя граница облачности (футы)
800
3600
Явления погоды
-RA
Условия полета
IFR
Аэропорт подробнее: 
BKN – значительная (рассеянная, разорванная) облачность; OVC – сплошная облачность;
-RA - слабый дождь;

Авиационная погода в Сыктывкаре

Регион: 
Погода METAR: 
UUYY 212300Z 02004MPS 8000 -SHSN SCT008 BKN018CB M00/M01 Q1004 R36/29//51 NOSIG RMK QFE744/0992
Время наблюдения
2022-05-21T23:00:00Z
Температура C
0.0
Точка росы
-1.0
Направление ветра
20
Скорость ветра (узлы)
8
Метео видимость
4.97
Облачность
SCT
BKN
Нижняя граница облачности (футы)
800
1800
Явления погоды
-SHSN
Условия полета
MVFR
Аэропорт подробнее: 
SCT – разбросанная отдельная облачность; BKN – значительная (рассеянная, разорванная) облачность;
-SHSN - слабый ливневой снег;

Авиационная погода в Воронеже

Регион: 
Погода METAR: 
UUOO 212300Z 08004MPS 9999 -SHRA BKN011 BKN///CB 09/08 Q1000 R12/290155 NOSIG RMK QFE736
Время наблюдения
2022-05-21T23:00:00Z
Температура C
9.0
Точка росы
8.0
Направление ветра
80
Скорость ветра (узлы)
8
Метео видимость
6.21
Облачность
BKN
Нижняя граница облачности (футы)
1100
Явления погоды
-SHRA
Условия полета
MVFR
Аэропорт подробнее: 
BKN – значительная (рассеянная, разорванная) облачность;
-SHRA - слабый ливневой дождь;